sensor_id;sensor_type;location;lat;lon;timestamp;P1;durP1;ratioP1;P2;durP2;ratioP2
8036;SDS011;4061;51.360;7.340;2022-08-30T00:01:32;4.55;;;2.45;;
8036;SDS011;4061;51.360;7.340;2022-08-30T00:03:59;4.00;;;2.10;;
8036;SDS011;4061;51.360;7.340;2022-08-30T00:06:27;7.65;;;1.95;;
8036;SDS011;4061;51.360;7.340;2022-08-30T00:08:56;8.15;;;2.05;;
8036;SDS011;4061;51.360;7.340;2022-08-30T00:11:24;3.45;;;2.22;;
8036;SDS011;4061;51.360;7.340;2022-08-30T00:13:52;5.53;;;2.38;;
8036;SDS011;4061;51.360;7.340;2022-08-30T00:16:20;2.78;;;1.90;;
8036;SDS011;4061;51.360;7.340;2022-08-30T00:18:48;3.70;;;2.40;;
8036;SDS011;4061;51.360;7.340;2022-08-30T00:21:15;4.10;;;1.77;;
8036;SDS011;4061;51.360;7.340;2022-08-30T00:23:42;2.92;;;1.95;;
8036;SDS011;4061;51.360;7.340;2022-08-30T00:26:11;2.50;;;2.00;;
8036;SDS011;4061;51.360;7.340;2022-08-30T00:28:38;2.80;;;1.95;;
8036;SDS011;4061;51.360;7.340;2022-08-30T00:31:05;2.22;;;1.83;;
8036;SDS011;4061;51.360;7.340;2022-08-30T00:33:32;5.75;;;1.90;;
8036;SDS011;4061;51.360;7.340;2022-08-30T00:36:00;2.92;;;1.98;;
8036;SDS011;4061;51.360;7.340;2022-08-30T00:38:27;5.93;;;2.42;;
8036;SDS011;4061;51.360;7.340;2022-08-30T00:40:54;9.55;;;2.55;;
8036;SDS011;4061;51.360;7.340;2022-08-30T00:43:24;5.00;;;2.15;;
8036;SDS011;4061;51.360;7.340;2022-08-30T00:45:51;6.13;;;2.17;;
8036;SDS011;4061;51.360;7.340;2022-08-30T00:48:19;3.72;;;1.88;;
8036;SDS011;4061;51.360;7.340;2022-08-30T00:50:47;7.22;;;2.20;;
8036;SDS011;4061;51.360;7.340;2022-08-30T00:53:15;4.72;;;2.33;;
8036;SDS011;4061;51.360;7.340;2022-08-30T00:55:42;3.17;;;1.63;;
8036;SDS011;4061;51.360;7.340;2022-08-30T00:58:12;2.50;;;2.30;;
8036;SDS011;4061;51.360;7.340;2022-08-30T01:00:42;5.57;;;2.10;;
8036;SDS011;4061;51.360;7.340;2022-08-30T01:03:09;2.67;;;1.92;;
8036;SDS011;4061;51.360;7.340;2022-08-30T01:05:36;4.95;;;2.30;;
8036;SDS011;4061;51.360;7.340;2022-08-30T01:08:04;2.97;;;2.60;;
8036;SDS011;4061;51.360;7.340;2022-08-30T01:10:32;5.32;;;2.38;;
8036;SDS011;4061;51.360;7.340;2022-08-30T01:12:59;4.53;;;2.08;;
8036;SDS011;4061;51.360;7.340;2022-08-30T01:15:26;7.20;;;1.80;;
8036;SDS011;4061;51.360;7.340;2022-08-30T01:17:55;2.53;;;2.33;;
8036;SDS011;4061;51.360;7.340;2022-08-30T01:20:23;5.68;;;2.25;;
8036;SDS011;4061;51.360;7.340;2022-08-30T01:23:07;4.70;;;2.58;;
8036;SDS011;4061;51.360;7.340;2022-08-30T01:25:36;3.95;;;2.50;;
8036;SDS011;4061;51.360;7.340;2022-08-30T01:28:07;4.15;;;2.05;;
8036;SDS011;4061;51.360;7.340;2022-08-30T01:30:35;5.38;;;1.95;;
8036;SDS011;4061;51.360;7.340;2022-08-30T01:33:05;3.95;;;2.22;;
8036;SDS011;4061;51.360;7.340;2022-08-30T01:35:33;3.97;;;2.42;;
8036;SDS011;4061;51.360;7.340;2022-08-30T01:38:02;8.60;;;2.58;;
8036;SDS011;4061;51.360;7.340;2022-08-30T01:40:31;2.97;;;2.00;;
8036;SDS011;4061;51.360;7.340;2022-08-30T01:42:58;3.92;;;2.83;;
8036;SDS011;4061;51.360;7.340;2022-08-30T01:45:26;5.80;;;2.50;;
8036;SDS011;4061;51.360;7.340;2022-08-30T01:47:53;3.65;;;2.60;;
8036;SDS011;4061;51.360;7.340;2022-08-30T01:50:20;6.03;;;2.97;;
8036;SDS011;4061;51.360;7.340;2022-08-30T01:52:47;7.30;;;2.67;;
8036;SDS011;4061;51.360;7.340;2022-08-30T01:55:14;3.00;;;2.47;;
8036;SDS011;4061;51.360;7.340;2022-08-30T01:57:43;8.90;;;2.35;;
8036;SDS011;4061;51.360;7.340;2022-08-30T02:00:11;4.20;;;3.40;;
8036;SDS011;4061;51.360;7.340;2022-08-30T02:02:38;2.58;;;2.38;;
8036;SDS011;4061;51.360;7.340;2022-08-30T02:05:06;10.73;;;2.50;;
8036;SDS011;4061;51.360;7.340;2022-08-30T02:07:33;3.63;;;2.97;;
8036;SDS011;4061;51.360;7.340;2022-08-30T02:10:00;5.85;;;2.70;;
8036;SDS011;4061;51.360;7.340;2022-08-30T02:12:27;4.78;;;2.35;;
8036;SDS011;4061;51.360;7.340;2022-08-30T02:14:56;9.25;;;2.50;;
8036;SDS011;4061;51.360;7.340;2022-08-30T02:17:23;6.72;;;2.67;;
8036;SDS011;4061;51.360;7.340;2022-08-30T02:19:50;4.85;;;2.67;;
8036;SDS011;4061;51.360;7.340;2022-08-30T02:22:18;10.85;;;2.83;;
8036;SDS011;4061;51.360;7.340;2022-08-30T02:24:45;3.65;;;2.75;;
8036;SDS011;4061;51.360;7.340;2022-08-30T02:27:12;4.80;;;2.50;;
8036;SDS011;4061;51.360;7.340;2022-08-30T02:29:40;5.75;;;3.15;;
8036;SDS011;4061;51.360;7.340;2022-08-30T02:32:08;5.38;;;2.90;;
8036;SDS011;4061;51.360;7.340;2022-08-30T02:34:35;7.88;;;3.17;;
8036;SDS011;4061;51.360;7.340;2022-08-30T02:37:02;6.38;;;3.05;;
8036;SDS011;4061;51.360;7.340;2022-08-30T02:39:30;3.75;;;2.95;;
8036;SDS011;4061;51.360;7.340;2022-08-30T02:41:57;6.13;;;2.90;;
8036;SDS011;4061;51.360;7.340;2022-08-30T02:44:24;13.10;;;3.20;;
8036;SDS011;4061;51.360;7.340;2022-08-30T02:46:51;3.95;;;3.08;;
8036;SDS011;4061;51.360;7.340;2022-08-30T02:49:20;4.15;;;3.17;;
8036;SDS011;4061;51.360;7.340;2022-08-30T02:51:47;5.30;;;3.10;;
8036;SDS011;4061;51.360;7.340;2022-08-30T02:54:14;3.20;;;2.90;;
8036;SDS011;4061;51.360;7.340;2022-08-30T02:56:44;11.00;;;3.55;;
8036;SDS011;4061;51.360;7.340;2022-08-30T02:59:11;5.85;;;3.38;;
8036;SDS011;4061;51.360;7.340;2022-08-30T03:01:38;3.08;;;2.72;;
8036;SDS011;4061;51.360;7.340;2022-08-30T03:04:06;7.55;;;3.60;;
8036;SDS011;4061;51.360;7.340;2022-08-30T03:06:34;4.43;;;3.28;;
8036;SDS011;4061;51.360;7.340;2022-08-30T03:09:02;5.28;;;3.17;;
8036;SDS011;4061;51.360;7.340;2022-08-30T03:11:29;7.07;;;4.05;;
8036;SDS011;4061;51.360;7.340;2022-08-30T03:13:57;10.02;;;4.10;;
8036;SDS011;4061;51.360;7.340;2022-08-30T03:16:24;4.72;;;3.65;;
8036;SDS011;4061;51.360;7.340;2022-08-30T03:18:52;4.68;;;3.85;;
8036;SDS011;4061;51.360;7.340;2022-08-30T03:21:19;3.38;;;3.08;;
8036;SDS011;4061;51.360;7.340;2022-08-30T03:23:47;4.40;;;3.30;;
8036;SDS011;4061;51.360;7.340;2022-08-30T03:26:14;10.45;;;4.30;;
8036;SDS011;4061;51.360;7.340;2022-08-30T03:28:42;12.65;;;4.30;;
8036;SDS011;4061;51.360;7.340;2022-08-30T03:31:09;6.30;;;4.32;;
8036;SDS011;4061;51.360;7.340;2022-08-30T03:33:37;7.07;;;3.95;;
8036;SDS011;4061;51.360;7.340;2022-08-30T03:36:05;6.45;;;3.65;;
8036;SDS011;4061;51.360;7.340;2022-08-30T03:38:32;9.00;;;4.65;;
8036;SDS011;4061;51.360;7.340;2022-08-30T03:41:01;5.88;;;4.10;;
8036;SDS011;4061;51.360;7.340;2022-08-30T03:43:28;9.20;;;3.83;;
8036;SDS011;4061;51.360;7.340;2022-08-30T03:45:57;6.25;;;4.15;;
8036;SDS011;4061;51.360;7.340;2022-08-30T03:48:24;6.88;;;4.72;;
8036;SDS011;4061;51.360;7.340;2022-08-30T03:50:51;6.47;;;4.45;;
8036;SDS011;4061;51.360;7.340;2022-08-30T03:53:18;7.28;;;4.32;;
8036;SDS011;4061;51.360;7.340;2022-08-30T03:55:46;11.15;;;4.78;;
8036;SDS011;4061;51.360;7.340;2022-08-30T03:58:14;6.90;;;4.43;;
8036;SDS011;4061;51.360;7.340;2022-08-30T04:00:42;5.95;;;4.15;;
8036;SDS011;4061;51.360;7.340;2022-08-30T04:03:09;13.52;;;4.35;;
8036;SDS011;4061;51.360;7.340;2022-08-30T04:05:36;5.75;;;4.07;;
8036;SDS011;4061;51.360;7.340;2022-08-30T04:08:03;9.70;;;5.15;;
8036;SDS011;4061;51.360;7.340;2022-08-30T04:10:30;7.13;;;4.20;;
8036;SDS011;4061;51.360;7.340;2022-08-30T04:12:59;16.13;;;4.63;;
8036;SDS011;4061;51.360;7.340;2022-08-30T04:15:27;12.98;;;4.60;;
8036;SDS011;4061;51.360;7.340;2022-08-30T04:17:55;5.22;;;4.00;;
8036;SDS011;4061;51.360;7.340;2022-08-30T04:20:22;6.68;;;5.20;;
8036;SDS011;4061;51.360;7.340;2022-08-30T04:22:49;10.40;;;4.80;;
8036;SDS011;4061;51.360;7.340;2022-08-30T04:25:16;5.82;;;3.88;;
8036;SDS011;4061;51.360;7.340;2022-08-30T04:27:43;8.02;;;4.82;;
8036;SDS011;4061;51.360;7.340;2022-08-30T04:30:11;12.90;;;4.82;;
8036;SDS011;4061;51.360;7.340;2022-08-30T04:32:40;9.35;;;4.35;;
8036;SDS011;4061;51.360;7.340;2022-08-30T04:35:07;9.50;;;4.35;;
8036;SDS011;4061;51.360;7.340;2022-08-30T04:37:35;8.95;;;4.60;;
8036;SDS011;4061;51.360;7.340;2022-08-30T04:40:03;10.90;;;5.05;;
8036;SDS011;4061;51.360;7.340;2022-08-30T04:42:31;12.55;;;4.53;;
8036;SDS011;4061;51.360;7.340;2022-08-30T04:45:00;11.27;;;5.22;;
8036;SDS011;4061;51.360;7.340;2022-08-30T04:47:27;12.43;;;5.18;;
8036;SDS011;4061;51.360;7.340;2022-08-30T04:49:56;6.97;;;4.22;;
8036;SDS011;4061;51.360;7.340;2022-08-30T04:52:23;11.50;;;4.93;;
8036;SDS011;4061;51.360;7.340;2022-08-30T04:54:52;4.90;;;4.22;;
8036;SDS011;4061;51.360;7.340;2022-08-30T04:57:20;12.80;;;5.07;;
8036;SDS011;4061;51.360;7.340;2022-08-30T04:59:47;10.23;;;4.93;;
8036;SDS011;4061;51.360;7.340;2022-08-30T05:02:14;10.98;;;5.28;;
8036;SDS011;4061;51.360;7.340;2022-08-30T05:04:41;11.48;;;5.32;;
8036;SDS011;4061;51.360;7.340;2022-08-30T05:17:59;14.88;;;5.30;;
8036;SDS011;4061;51.360;7.340;2022-08-30T05:20:27;8.48;;;5.35;;
8036;SDS011;4061;51.360;7.340;2022-08-30T05:22:54;9.32;;;4.90;;
8036;SDS011;4061;51.360;7.340;2022-08-30T05:25:22;16.63;;;5.55;;
8036;SDS011;4061;51.360;7.340;2022-08-30T05:27:49;17.10;;;5.05;;
8036;SDS011;4061;51.360;7.340;2022-08-30T05:30:17;12.07;;;5.78;;
8036;SDS011;4061;51.360;7.340;2022-08-30T05:32:44;11.82;;;5.05;;
8036;SDS011;4061;51.360;7.340;2022-08-30T05:35:13;7.93;;;4.93;;
8036;SDS011;4061;51.360;7.340;2022-08-30T05:37:41;10.90;;;5.40;;
8036;SDS011;4061;51.360;7.340;2022-08-30T05:40:09;14.77;;;5.13;;
8036;SDS011;4061;51.360;7.340;2022-08-30T05:42:36;6.20;;;4.45;;
8036;SDS011;4061;51.360;7.340;2022-08-30T05:45:05;8.45;;;4.72;;
8036;SDS011;4061;51.360;7.340;2022-08-30T05:47:33;11.00;;;5.00;;
8036;SDS011;4061;51.360;7.340;2022-08-30T05:50:00;8.73;;;4.70;;
8036;SDS011;4061;51.360;7.340;2022-08-30T05:52:28;10.70;;;4.85;;
8036;SDS011;4061;51.360;7.340;2022-08-30T05:54:56;12.32;;;5.13;;
8036;SDS011;4061;51.360;7.340;2022-08-30T05:57:24;7.25;;;5.00;;
8036;SDS011;4061;51.360;7.340;2022-08-30T05:59:51;10.35;;;4.40;;
8036;SDS011;4061;51.360;7.340;2022-08-30T06:02:18;11.25;;;4.88;;
8036;SDS011;4061;51.360;7.340;2022-08-30T06:04:45;6.85;;;4.68;;
8036;SDS011;4061;51.360;7.340;2022-08-30T06:07:12;10.95;;;4.55;;
8036;SDS011;4061;51.360;7.340;2022-08-30T06:09:41;9.93;;;4.50;;
8036;SDS011;4061;51.360;7.340;2022-08-30T06:12:08;7.80;;;4.38;;
8036;SDS011;4061;51.360;7.340;2022-08-30T06:14:35;8.02;;;4.38;;
8036;SDS011;4061;51.360;7.340;2022-08-30T06:17:03;10.95;;;4.25;;
8036;SDS011;4061;51.360;7.340;2022-08-30T06:19:30;7.63;;;4.60;;
8036;SDS011;4061;51.360;7.340;2022-08-30T06:21:57;9.38;;;4.70;;
8036;SDS011;4061;51.360;7.340;2022-08-30T06:24:25;12.93;;;5.00;;
8036;SDS011;4061;51.360;7.340;2022-08-30T06:26:54;13.20;;;4.57;;
8036;SDS011;4061;51.360;7.340;2022-08-30T06:29:21;12.07;;;4.78;;
8036;SDS011;4061;51.360;7.340;2022-08-30T06:31:48;7.18;;;4.55;;
8036;SDS011;4061;51.360;7.340;2022-08-30T06:34:16;5.63;;;4.53;;
8036;SDS011;4061;51.360;7.340;2022-08-30T06:36:43;10.63;;;4.88;;
8036;SDS011;4061;51.360;7.340;2022-08-30T06:39:11;7.07;;;4.90;;
8036;SDS011;4061;51.360;7.340;2022-08-30T06:41:38;10.60;;;4.72;;
8036;SDS011;4061;51.360;7.340;2022-08-30T06:44:07;6.70;;;4.68;;
8036;SDS011;4061;51.360;7.340;2022-08-30T06:46:35;11.73;;;4.45;;
8036;SDS011;4061;51.360;7.340;2022-08-30T06:49:03;11.00;;;4.15;;
8036;SDS011;4061;51.360;7.340;2022-08-30T06:51:31;8.63;;;4.47;;
8036;SDS011;4061;51.360;7.340;2022-08-30T06:53:58;8.40;;;4.88;;
8036;SDS011;4061;51.360;7.340;2022-08-30T06:56:26;11.27;;;4.53;;
8036;SDS011;4061;51.360;7.340;2022-08-30T06:58:53;10.02;;;4.55;;
8036;SDS011;4061;51.360;7.340;2022-08-30T07:01:22;8.05;;;4.80;;
8036;SDS011;4061;51.360;7.340;2022-08-30T07:03:50;9.18;;;4.22;;
8036;SDS011;4061;51.360;7.340;2022-08-30T07:06:18;16.05;;;4.55;;
8036;SDS011;4061;51.360;7.340;2022-08-30T07:08:45;7.88;;;4.15;;
8036;SDS011;4061;51.360;7.340;2022-08-30T07:11:23;12.20;;;4.28;;
8036;SDS011;4061;51.360;7.340;2022-08-30T07:13:50;4.88;;;3.88;;
8036;SDS011;4061;51.360;7.340;2022-08-30T07:16:17;11.02;;;4.32;;
8036;SDS011;4061;51.360;7.340;2022-08-30T07:18:46;16.65;;;4.90;;
8036;SDS011;4061;51.360;7.340;2022-08-30T07:21:16;9.65;;;5.15;;
8036;SDS011;4061;51.360;7.340;2022-08-30T07:23:45;7.63;;;4.28;;
8036;SDS011;4061;51.360;7.340;2022-08-30T07:26:13;6.53;;;4.60;;
8036;SDS011;4061;51.360;7.340;2022-08-30T07:28:42;9.00;;;4.95;;
8036;SDS011;4061;51.360;7.340;2022-08-30T07:31:11;8.77;;;3.78;;
8036;SDS011;4061;51.360;7.340;2022-08-30T07:33:38;8.77;;;4.13;;
8036;SDS011;4061;51.360;7.340;2022-08-30T07:36:07;8.00;;;4.15;;
8036;SDS011;4061;51.360;7.340;2022-08-30T07:38:35;5.18;;;3.63;;
8036;SDS011;4061;51.360;7.340;2022-08-30T07:41:02;9.98;;;4.22;;
8036;SDS011;4061;51.360;7.340;2022-08-30T07:43:29;6.03;;;3.38;;
8036;SDS011;4061;51.360;7.340;2022-08-30T07:45:59;8.40;;;3.90;;
8036;SDS011;4061;51.360;7.340;2022-08-30T07:48:26;7.65;;;4.15;;
8036;SDS011;4061;51.360;7.340;2022-08-30T07:50:53;8.70;;;3.75;;
8036;SDS011;4061;51.360;7.340;2022-08-30T07:53:22;5.55;;;3.30;;
8036;SDS011;4061;51.360;7.340;2022-08-30T07:55:50;4.28;;;3.60;;
8036;SDS011;4061;51.360;7.340;2022-08-30T07:58:17;8.60;;;3.88;;
8036;SDS011;4061;51.360;7.340;2022-08-30T08:00:44;8.48;;;3.55;;
8036;SDS011;4061;51.360;7.340;2022-08-30T08:03:12;4.68;;;3.45;;
8036;SDS011;4061;51.360;7.340;2022-08-30T08:05:39;10.55;;;3.80;;
8036;SDS011;4061;51.360;7.340;2022-08-30T08:08:06;9.05;;;3.13;;
8036;SDS011;4061;51.360;7.340;2022-08-30T08:10:36;4.45;;;4.03;;
8036;SDS011;4061;51.360;7.340;2022-08-30T08:13:04;9.15;;;3.47;;
8036;SDS011;4061;51.360;7.340;2022-08-30T08:15:31;3.38;;;2.97;;
8036;SDS011;4061;51.360;7.340;2022-08-30T08:17:58;3.97;;;3.25;;
8036;SDS011;4061;51.360;7.340;2022-08-30T08:20:25;6.35;;;3.42;;
8036;SDS011;4061;51.360;7.340;2022-08-30T08:22:53;5.60;;;3.10;;
8036;SDS011;4061;51.360;7.340;2022-08-30T08:25:20;6.18;;;2.75;;
8036;SDS011;4061;51.360;7.340;2022-08-30T08:27:49;7.20;;;2.45;;
8036;SDS011;4061;51.360;7.340;2022-08-30T08:30:17;4.95;;;2.80;;
8036;SDS011;4061;51.360;7.340;2022-08-30T08:32:44;3.00;;;2.40;;
8036;SDS011;4061;51.360;7.340;2022-08-30T08:35:12;6.30;;;2.33;;
8036;SDS011;4061;51.360;7.340;2022-08-30T08:37:39;7.00;;;2.80;;
8036;SDS011;4061;51.360;7.340;2022-08-30T08:40:08;4.28;;;2.38;;
8036;SDS011;4061;51.360;7.340;2022-08-30T08:42:35;3.22;;;2.00;;
8036;SDS011;4061;51.360;7.340;2022-08-30T08:45:10;6.10;;;2.58;;
8036;SDS011;4061;51.360;7.340;2022-08-30T08:47:39;4.75;;;2.55;;
8036;SDS011;4061;51.360;7.340;2022-08-30T08:50:09;2.50;;;2.40;;
8036;SDS011;4061;51.360;7.340;2022-08-30T08:52:41;5.55;;;2.47;;
8036;SDS011;4061;51.360;7.340;2022-08-30T08:55:30;5.75;;;2.35;;
8036;SDS011;4061;51.360;7.340;2022-08-30T08:57:58;3.47;;;2.38;;
8036;SDS011;4061;51.360;7.340;2022-08-30T09:00:26;3.53;;;2.40;;
8036;SDS011;4061;51.360;7.340;2022-08-30T09:02:55;3.80;;;2.20;;
8036;SDS011;4061;51.360;7.340;2022-08-30T09:05:24;4.80;;;2.42;;
8036;SDS011;4061;51.360;7.340;2022-08-30T09:07:53;2.72;;;2.53;;
8036;SDS011;4061;51.360;7.340;2022-08-30T09:10:21;5.82;;;2.65;;
8036;SDS011;4061;51.360;7.340;2022-08-30T09:12:50;3.25;;;2.40;;
8036;SDS011;4061;51.360;7.340;2022-08-30T09:15:19;3.92;;;2.28;;
8036;SDS011;4061;51.360;7.340;2022-08-30T09:17:49;4.38;;;2.60;;
8036;SDS011;4061;51.360;7.340;2022-08-30T09:20:24;10.02;;;2.45;;
8036;SDS011;4061;51.360;7.340;2022-08-30T09:22:52;7.82;;;2.30;;
8036;SDS011;4061;51.360;7.340;2022-08-30T09:25:20;2.38;;;1.58;;
8036;SDS011;4061;51.360;7.340;2022-08-30T09:27:49;2.13;;;1.95;;
8036;SDS011;4061;51.360;7.340;2022-08-30T09:30:17;2.47;;;1.83;;
8036;SDS011;4061;51.360;7.340;2022-08-30T09:32:50;4.88;;;1.83;;
8036;SDS011;4061;51.360;7.340;2022-08-30T09:35:18;3.28;;;1.88;;
8036;SDS011;4061;51.360;7.340;2022-08-30T09:37:46;2.20;;;1.48;;
8036;SDS011;4061;51.360;7.340;2022-08-30T09:40:21;4.25;;;2.13;;
8036;SDS011;4061;51.360;7.340;2022-08-30T09:42:57;3.10;;;2.00;;
8036;SDS011;4061;51.360;7.340;2022-08-30T09:45:27;6.95;;;2.45;;
8036;SDS011;4061;51.360;7.340;2022-08-30T09:47:57;6.07;;;2.30;;
8036;SDS011;4061;51.360;7.340;2022-08-30T09:50:24;2.80;;;1.88;;
8036;SDS011;4061;51.360;7.340;2022-08-30T09:53:00;5.32;;;1.70;;
8036;SDS011;4061;51.360;7.340;2022-08-30T09:58:25;8.27;;;1.65;;
8036;SDS011;4061;51.360;7.340;2022-08-30T10:00:57;1.77;;;1.67;;
8036;SDS011;4061;51.360;7.340;2022-08-30T10:03:28;3.92;;;1.70;;
8036;SDS011;4061;51.360;7.340;2022-08-30T10:06:02;7.82;;;2.10;;
8036;SDS011;4061;51.360;7.340;2022-08-30T10:08:37;3.55;;;1.38;;
8036;SDS011;4061;51.360;7.340;2022-08-30T10:11:07;4.85;;;1.58;;
8036;SDS011;4061;51.360;7.340;2022-08-30T10:13:42;4.45;;;1.60;;
8036;SDS011;4061;51.360;7.340;2022-08-30T10:16:14;2.63;;;1.80;;
8036;SDS011;4061;51.360;7.340;2022-08-30T10:18:47;2.35;;;1.40;;
8036;SDS011;4061;51.360;7.340;2022-08-30T10:21:18;2.25;;;1.70;;
8036;SDS011;4061;51.360;7.340;2022-08-30T10:23:49;1.40;;;1.27;;
8036;SDS011;4061;51.360;7.340;2022-08-30T10:26:22;2.80;;;1.58;;
8036;SDS011;4061;51.360;7.340;2022-08-30T10:28:53;1.88;;;1.55;;
8036;SDS011;4061;51.360;7.340;2022-08-30T10:31:23;3.47;;;1.83;;
8036;SDS011;4061;51.360;7.340;2022-08-30T10:33:53;4.85;;;1.48;;
8036;SDS011;4061;51.360;7.340;2022-08-30T10:36:22;2.97;;;1.33;;
8036;SDS011;4061;51.360;7.340;2022-08-30T10:38:51;2.85;;;1.20;;
8036;SDS011;4061;51.360;7.340;2022-08-30T10:41:21;3.08;;;1.52;;
8036;SDS011;4061;51.360;7.340;2022-08-30T10:43:52;1.83;;;1.33;;
8036;SDS011;4061;51.360;7.340;2022-08-30T10:46:23;1.35;;;1.25;;
8036;SDS011;4061;51.360;7.340;2022-08-30T10:48:50;4.70;;;1.35;;
8036;SDS011;4061;51.360;7.340;2022-08-30T10:51:21;1.63;;;0.88;;
8036;SDS011;4061;51.360;7.340;2022-08-30T10:53:51;1.20;;;1.10;;
8036;SDS011;4061;51.360;7.340;2022-08-30T10:56:21;1.58;;;1.10;;
8036;SDS011;4061;51.360;7.340;2022-08-30T10:58:52;8.18;;;1.23;;
8036;SDS011;4061;51.360;7.340;2022-08-30T11:01:23;2.15;;;1.05;;
8036;SDS011;4061;51.360;7.340;2022-08-30T11:04:06;4.18;;;1.80;;
8036;SDS011;4061;51.360;7.340;2022-08-30T11:06:43;1.85;;;1.20;;
8036;SDS011;4061;51.360;7.340;2022-08-30T11:09:17;2.40;;;1.60;;
8036;SDS011;4061;51.360;7.340;2022-08-30T11:11:58;2.40;;;1.40;;
8036;SDS011;4061;51.360;7.340;2022-08-30T11:14:27;12.57;;;1.63;;
8036;SDS011;4061;51.360;7.340;2022-08-30T11:16:55;1.65;;;1.23;;
8036;SDS011;4061;51.360;7.340;2022-08-30T11:19:26;5.68;;;1.73;;
8036;SDS011;4061;51.360;7.340;2022-08-30T11:22:08;2.85;;;1.00;;
8036;SDS011;4061;51.360;7.340;2022-08-30T11:32:56;2.67;;;1.13;;
8036;SDS011;4061;51.360;7.340;2022-08-30T11:35:37;4.13;;;1.40;;
8036;SDS011;4061;51.360;7.340;2022-08-30T11:38:13;3.70;;;1.27;;
8036;SDS011;4061;51.360;7.340;2022-08-30T11:40:45;4.22;;;1.40;;
8036;SDS011;4061;51.360;7.340;2022-08-30T11:46:12;4.75;;;1.27;;
8036;SDS011;4061;51.360;7.340;2022-08-30T11:48:43;2.90;;;1.20;;
8036;SDS011;4061;51.360;7.340;2022-08-30T11:53:57;1.55;;;1.10;;
8036;SDS011;4061;51.360;7.340;2022-08-30T11:56:27;2.65;;;1.10;;
8036;SDS011;4061;51.360;7.340;2022-08-30T11:58:57;2.72;;;1.05;;
8036;SDS011;4061;51.360;7.340;2022-08-30T12:01:33;2.22;;;1.35;;
8036;SDS011;4061;51.360;7.340;2022-08-30T12:04:02;6.20;;;1.48;;
8036;SDS011;4061;51.360;7.340;2022-08-30T12:06:45;2.72;;;1.33;;
8036;SDS011;4061;51.360;7.340;2022-08-30T12:11:58;1.75;;;1.40;;
8036;SDS011;4061;51.360;7.340;2022-08-30T12:14:43;1.65;;;1.20;;
8036;SDS011;4061;51.360;7.340;2022-08-30T12:17:17;3.60;;;1.40;;
8036;SDS011;4061;51.360;7.340;2022-08-30T12:20:03;1.20;;;1.10;;
8036;SDS011;4061;51.360;7.340;2022-08-30T12:22:30;3.47;;;1.20;;
8036;SDS011;4061;51.360;7.340;2022-08-30T12:25:02;0.98;;;0.98;;
8036;SDS011;4061;51.360;7.340;2022-08-30T12:27:31;2.22;;;1.05;;
8036;SDS011;4061;51.360;7.340;2022-08-30T12:30:00;4.68;;;1.10;;
8036;SDS011;4061;51.360;7.340;2022-08-30T12:32:28;2.13;;;1.20;;
8036;SDS011;4061;51.360;7.340;2022-08-30T12:34:56;1.35;;;1.25;;
8036;SDS011;4061;51.360;7.340;2022-08-30T12:37:24;1.95;;;1.48;;
8036;SDS011;4061;51.360;7.340;2022-08-30T12:39:59;1.85;;;1.00;;
8036;SDS011;4061;51.360;7.340;2022-08-30T12:42:28;1.20;;;1.10;;
8036;SDS011;4061;51.360;7.340;2022-08-30T12:44:58;3.03;;;1.25;;
8036;SDS011;4061;51.360;7.340;2022-08-30T12:47:26;0.90;;;0.90;;
8036;SDS011;4061;51.360;7.340;2022-08-30T12:49:55;2.28;;;1.67;;
8036;SDS011;4061;51.360;7.340;2022-08-30T12:52:26;4.28;;;1.58;;
8036;SDS011;4061;51.360;7.340;2022-08-30T12:54:55;1.30;;;1.20;;
8036;SDS011;4061;51.360;7.340;2022-08-30T12:57:34;2.78;;;1.38;;
8036;SDS011;4061;51.360;7.340;2022-08-30T13:00:03;1.85;;;1.25;;
8036;SDS011;4061;51.360;7.340;2022-08-30T13:02:40;3.00;;;1.50;;
8036;SDS011;4061;51.360;7.340;2022-08-30T13:07:50;2.70;;;1.33;;
8036;SDS011;4061;51.360;7.340;2022-08-30T13:10:17;1.10;;;1.10;;
8036;SDS011;4061;51.360;7.340;2022-08-30T13:12:58;2.08;;;1.13;;
8036;SDS011;4061;51.360;7.340;2022-08-30T13:15:30;1.35;;;1.17;;
8036;SDS011;4061;51.360;7.340;2022-08-30T13:18:17;2.28;;;1.10;;
8036;SDS011;4061;51.360;7.340;2022-08-30T13:20:45;2.20;;;1.30;;
8036;SDS011;4061;51.360;7.340;2022-08-30T13:23:19;2.92;;;1.23;;
8036;SDS011;4061;51.360;7.340;2022-08-30T13:25:47;3.65;;;1.67;;
8036;SDS011;4061;51.360;7.340;2022-08-30T13:28:14;1.90;;;1.33;;
8036;SDS011;4061;51.360;7.340;2022-08-30T13:30:43;1.45;;;1.35;;
8036;SDS011;4061;51.360;7.340;2022-08-30T13:33:09;2.28;;;1.48;;
8036;SDS011;4061;51.360;7.340;2022-08-30T13:35:37;4.32;;;1.42;;
8036;SDS011;4061;51.360;7.340;2022-08-30T13:38:04;2.42;;;1.42;;
8036;SDS011;4061;51.360;7.340;2022-08-30T13:40:31;2.83;;;1.08;;
8036;SDS011;4061;51.360;7.340;2022-08-30T13:42:59;5.25;;;1.48;;
8036;SDS011;4061;51.360;7.340;2022-08-30T13:45:26;3.00;;;1.20;;
8036;SDS011;4061;51.360;7.340;2022-08-30T13:47:55;1.30;;;1.20;;
8036;SDS011;4061;51.360;7.340;2022-08-30T13:50:22;6.20;;;1.13;;
8036;SDS011;4061;51.360;7.340;2022-08-30T13:52:49;1.10;;;1.10;;
8036;SDS011;4061;51.360;7.340;2022-08-30T13:55:16;2.33;;;1.20;;
8036;SDS011;4061;51.360;7.340;2022-08-30T13:57:43;1.83;;;1.27;;
8036;SDS011;4061;51.360;7.340;2022-08-30T14:00:12;4.05;;;1.88;;
8036;SDS011;4061;51.360;7.340;2022-08-30T14:02:41;1.27;;;1.15;;
8036;SDS011;4061;51.360;7.340;2022-08-30T14:05:10;1.75;;;1.33;;
8036;SDS011;4061;51.360;7.340;2022-08-30T14:07:37;2.22;;;1.50;;
8036;SDS011;4061;51.360;7.340;2022-08-30T14:10:04;2.42;;;1.10;;
8036;SDS011;4061;51.360;7.340;2022-08-30T14:12:32;3.15;;;1.40;;
8036;SDS011;4061;51.360;7.340;2022-08-30T14:14:59;1.77;;;1.42;;
8036;SDS011;4061;51.360;7.340;2022-08-30T14:17:27;4.78;;;1.33;;
8036;SDS011;4061;51.360;7.340;2022-08-30T14:19:56;1.48;;;1.30;;
8036;SDS011;4061;51.360;7.340;2022-08-30T14:22:25;6.30;;;1.15;;
8036;SDS011;4061;51.360;7.340;2022-08-30T14:24:52;3.10;;;1.38;;
8036;SDS011;4061;51.360;7.340;2022-08-30T14:27:19;1.63;;;1.33;;
8036;SDS011;4061;51.360;7.340;2022-08-30T14:29:47;1.40;;;1.30;;
8036;SDS011;4061;51.360;7.340;2022-08-30T14:32:14;4.60;;;1.33;;
8036;SDS011;4061;51.360;7.340;2022-08-30T14:34:41;1.05;;;1.02;;
8036;SDS011;4061;51.360;7.340;2022-08-30T14:37:08;3.80;;;1.10;;
8036;SDS011;4061;51.360;7.340;2022-08-30T14:39:37;6.95;;;1.10;;
8036;SDS011;4061;51.360;7.340;2022-08-30T14:42:04;1.75;;;1.13;;
8036;SDS011;4061;51.360;7.340;2022-08-30T14:44:32;2.95;;;1.15;;
8036;SDS011;4061;51.360;7.340;2022-08-30T14:47:00;1.15;;;1.15;;
8036;SDS011;4061;51.360;7.340;2022-08-30T14:49:27;1.45;;;1.35;;
8036;SDS011;4061;51.360;7.340;2022-08-30T14:51:54;5.00;;;1.30;;
8036;SDS011;4061;51.360;7.340;2022-08-30T14:54:22;2.88;;;1.20;;
8036;SDS011;4061;51.360;7.340;2022-08-30T14:56:51;1.88;;;1.40;;
8036;SDS011;4061;51.360;7.340;2022-08-30T14:59:19;4.43;;;1.20;;
8036;SDS011;4061;51.360;7.340;2022-08-30T15:01:46;2.17;;;1.45;;
8036;SDS011;4061;51.360;7.340;2022-08-30T15:04:13;7.75;;;2.38;;
8036;SDS011;4061;51.360;7.340;2022-08-30T15:06:41;4.30;;;1.10;;
8036;SDS011;4061;51.360;7.340;2022-08-30T15:09:12;1.10;;;1.08;;
8036;SDS011;4061;51.360;7.340;2022-08-30T15:11:39;1.30;;;1.20;;
8036;SDS011;4061;51.360;7.340;2022-08-30T15:14:08;3.78;;;1.65;;
8036;SDS011;4061;51.360;7.340;2022-08-30T15:16:37;3.35;;;1.30;;
8036;SDS011;4061;51.360;7.340;2022-08-30T15:19:05;3.55;;;1.73;;
8036;SDS011;4061;51.360;7.340;2022-08-30T15:21:34;1.48;;;1.17;;
8036;SDS011;4061;51.360;7.340;2022-08-30T15:24:02;7.22;;;1.63;;
8036;SDS011;4061;51.360;7.340;2022-08-30T15:26:31;7.03;;;1.73;;
8036;SDS011;4061;51.360;7.340;2022-08-30T15:28:58;6.10;;;1.70;;
8036;SDS011;4061;51.360;7.340;2022-08-30T15:31:26;2.63;;;1.20;;
8036;SDS011;4061;51.360;7.340;2022-08-30T15:33:55;3.63;;;1.13;;
8036;SDS011;4061;51.360;7.340;2022-08-30T15:36:22;1.00;;;1.00;;
8036;SDS011;4061;51.360;7.340;2022-08-30T15:38:50;1.42;;;1.30;;
8036;SDS011;4061;51.360;7.340;2022-08-30T15:41:19;1.02;;;1.00;;
8036;SDS011;4061;51.360;7.340;2022-08-30T15:43:46;8.27;;;2.95;;
8036;SDS011;4061;51.360;7.340;2022-08-30T15:46:17;4.22;;;1.25;;
8036;SDS011;4061;51.360;7.340;2022-08-30T15:48:49;1.08;;;1.08;;
8036;SDS011;4061;51.360;7.340;2022-08-30T15:51:19;2.70;;;1.35;;
8036;SDS011;4061;51.360;7.340;2022-08-30T15:53:46;5.13;;;1.50;;
8036;SDS011;4061;51.360;7.340;2022-08-30T15:56:14;4.13;;;0.98;;